Shoals Junction, South Carolina
Current Conditions -  °F | °C
As of 4:15 PM on Sunday 23 Nov 2014 (Local Time) from KGRD Reporting Station
Light Rain Light Rain  
Wind Chill: 53°   Ceiling: 300
Heat Index: 53°   Visibility: 2.5mi
Dew Point: 52°   Wind: 3mph
Humidity: 96%   Direction: 60°ENE
Pressure: 29.83"   Gusts: NA
Location:  34.3943°N, 82.3585°W
Report Text: KGRD 232115Z AUTO 06003KT 2 1/2SM -RA BR OVC003 12/11 A2983 RMK AO2 P0001 T01170111
Loading
Personal Weather Stations






























Interactive Weather Map New forecast layout! Learn more

10-Day Weather Forecast

Advertisements
Track Severe Weather on mobile